sensor_id;sensor_type;location;lat;lon;timestamp;pressure;altitude;pressure_sealevel;temperature;humidity
9717;BME280;4897;43.570;27.832;2023-05-10T00:01:30;99659.09;;;7.16;100.00
9717;BME280;4897;43.570;27.832;2023-05-10T00:03:57;99618.19;;;6.77;100.00
9717;BME280;4897;43.570;27.832;2023-05-10T00:06:23;99650.56;;;6.97;100.00
9717;BME280;4897;43.570;27.832;2023-05-10T00:08:50;99672.88;;;7.09;100.00
9717;BME280;4897;43.570;27.832;2023-05-10T00:11:17;99657.22;;;6.90;100.00
9717;BME280;4897;43.570;27.832;2023-05-10T00:13:47;99659.28;;;6.99;100.00
9717;BME280;4897;43.570;27.832;2023-05-10T00:16:13;99661.78;;;6.88;100.00
9717;BME280;4897;43.570;27.832;2023-05-10T00:18:40;99654.56;;;6.90;100.00
9717;BME280;4897;43.570;27.832;2023-05-10T00:21:07;99660.44;;;6.95;100.00
9717;BME280;4897;43.570;27.832;2023-05-10T00:23:34;99619.06;;;6.63;100.00
9717;BME280;4897;43.570;27.832;2023-05-10T00:26:01;99661.38;;;6.80;100.00
9717;BME280;4897;43.570;27.832;2023-05-10T00:28:28;99647.16;;;6.67;100.00
9717;BME280;4897;43.570;27.832;2023-05-10T00:30:56;99648.47;;;6.60;100.00
9717;BME280;4897;43.570;27.832;2023-05-10T00:33:23;99647.72;;;6.72;100.00
9717;BME280;4897;43.570;27.832;2023-05-10T00:35:50;99654.94;;;6.70;100.00
9717;BME280;4897;43.570;27.832;2023-05-10T00:38:17;99667.06;;;6.60;100.00
9717;BME280;4897;43.570;27.832;2023-05-10T00:40:44;99649.44;;;6.59;100.00
9717;BME280;4897;43.570;27.832;2023-05-10T00:43:11;99655.84;;;6.55;100.00
9717;BME280;4897;43.570;27.832;2023-05-10T00:45:39;99656.06;;;6.52;100.00
9717;BME280;4897;43.570;27.832;2023-05-10T00:48:08;99657.56;;;6.42;100.00
9717;BME280;4897;43.570;27.832;2023-05-10T00:50:35;99594.09;;;5.94;100.00
9717;BME280;4897;43.570;27.832;2023-05-10T00:53:02;99660.75;;;6.33;100.00
9717;BME280;4897;43.570;27.832;2023-05-10T00:55:30;99654.38;;;6.21;100.00
9717;BME280;4897;43.570;27.832;2023-05-10T00:57:56;99605.56;;;5.94;100.00
9717;BME280;4897;43.570;27.832;2023-05-10T01:00:23;99650.97;;;6.19;100.00
9717;BME280;4897;43.570;27.832;2023-05-10T01:02:50;99619.31;;;6.01;100.00
9717;BME280;4897;43.570;27.832;2023-05-10T01:05:20;99642.66;;;6.10;100.00
9717;BME280;4897;43.570;27.832;2023-05-10T01:07:47;99591.03;;;5.86;100.00
9717;BME280;4897;43.570;27.832;2023-05-10T01:10:14;99616.66;;;6.01;100.00
9717;BME280;4897;43.570;27.832;2023-05-10T01:12:43;99617.44;;;6.03;100.00
9717;BME280;4897;43.570;27.832;2023-05-10T01:15:11;99625.47;;;6.01;100.00
9717;BME280;4897;43.570;27.832;2023-05-10T01:17:40;99657.56;;;6.12;100.00
9717;BME280;4897;43.570;27.832;2023-05-10T01:20:10;99622.16;;;5.98;100.00
9717;BME280;4897;43.570;27.832;2023-05-10T01:25:59;99574.44;;;5.66;100.00
9717;BME280;4897;43.570;27.832;2023-05-10T01:28:43;99650.41;;;5.99;100.00
9717;BME280;4897;43.570;27.832;2023-05-10T01:31:31;99615.69;;;5.88;100.00
9717;BME280;4897;43.570;27.832;2023-05-10T01:34:04;99647.56;;;6.02;100.00
9717;BME280;4897;43.570;27.832;2023-05-10T01:36:40;99621.59;;;5.77;100.00
9717;BME280;4897;43.570;27.832;2023-05-10T01:39:14;99637.44;;;5.94;100.00
9717;BME280;4897;43.570;27.832;2023-05-10T01:41:47;99649.22;;;6.04;100.00
9717;BME280;4897;43.570;27.832;2023-05-10T01:44:20;99599.09;;;5.68;100.00
9717;BME280;4897;43.570;27.832;2023-05-10T01:46:53;99655.91;;;5.96;100.00
9717;BME280;4897;43.570;27.832;2023-05-10T01:49:26;99649.72;;;5.95;100.00
9717;BME280;4897;43.570;27.832;2023-05-10T01:52:00;99653.00;;;6.00;100.00
9717;BME280;4897;43.570;27.832;2023-05-10T01:54:33;99656.47;;;6.01;100.00
9717;BME280;4897;43.570;27.832;2023-05-10T01:57:04;99443.34;;;4.66;100.00
9717;BME280;4897;43.570;27.832;2023-05-10T01:59:36;99657.75;;;6.09;100.00
9717;BME280;4897;43.570;27.832;2023-05-10T02:02:07;99606.22;;;5.82;100.00
9717;BME280;4897;43.570;27.832;2023-05-10T02:04:39;99650.38;;;6.14;100.00
9717;BME280;4897;43.570;27.832;2023-05-10T02:07:08;99543.84;;;5.61;100.00
9717;BME280;4897;43.570;27.832;2023-05-10T02:09:36;99630.00;;;6.15;100.00
9717;BME280;4897;43.570;27.832;2023-05-10T02:12:05;99563.31;;;5.76;100.00
9717;BME280;4897;43.570;27.832;2023-05-10T02:14:35;99625.72;;;6.12;100.00
9717;BME280;4897;43.570;27.832;2023-05-10T02:17:04;99634.94;;;6.21;100.00
9717;BME280;4897;43.570;27.832;2023-05-10T02:19:32;99566.53;;;5.81;100.00
9717;BME280;4897;43.570;27.832;2023-05-10T02:22:03;99670.59;;;6.17;100.00
9717;BME280;4897;43.570;27.832;2023-05-10T02:24:31;99652.13;;;6.29;100.00
9717;BME280;4897;43.570;27.832;2023-05-10T02:26:59;99625.28;;;5.90;100.00
9717;BME280;4897;43.570;27.832;2023-05-10T02:29:28;99650.34;;;6.30;100.00
9717;BME280;4897;43.570;27.832;2023-05-10T02:31:56;99630.00;;;6.15;100.00
9717;BME280;4897;43.570;27.832;2023-05-10T02:34:25;99652.75;;;6.19;100.00
9717;BME280;4897;43.570;27.832;2023-05-10T02:36:53;99647.97;;;6.10;100.00
9717;BME280;4897;43.570;27.832;2023-05-10T02:39:23;99607.66;;;5.74;100.00
9717;BME280;4897;43.570;27.832;2023-05-10T02:41:54;99646.28;;;6.09;100.00
9717;BME280;4897;43.570;27.832;2023-05-10T02:44:23;99647.63;;;6.16;100.00
9717;BME280;4897;43.570;27.832;2023-05-10T02:46:53;99649.41;;;6.15;100.00
9717;BME280;4897;43.570;27.832;2023-05-10T02:49:21;99629.78;;;6.18;100.00
9717;BME280;4897;43.570;27.832;2023-05-10T02:51:51;99648.25;;;6.35;100.00
9717;BME280;4897;43.570;27.832;2023-05-10T02:54:27;99654.81;;;6.43;100.00
9717;BME280;4897;43.570;27.832;2023-05-10T02:56:58;99642.00;;;6.50;100.00
9717;BME280;4897;43.570;27.832;2023-05-10T02:59:26;99595.25;;;6.04;100.00
9717;BME280;4897;43.570;27.832;2023-05-10T03:01:53;99656.81;;;6.68;100.00
9717;BME280;4897;43.570;27.832;2023-05-10T03:04:20;99649.81;;;6.67;100.00
9717;BME280;4897;43.570;27.832;2023-05-10T03:06:47;99634.59;;;6.55;100.00
9717;BME280;4897;43.570;27.832;2023-05-10T03:09:14;99636.50;;;6.53;100.00
9717;BME280;4897;43.570;27.832;2023-05-10T03:11:56;99651.88;;;6.62;100.00
9717;BME280;4897;43.570;27.832;2023-05-10T03:14:36;99653.78;;;6.60;100.00
9717;BME280;4897;43.570;27.832;2023-05-10T03:17:23;99658.44;;;6.57;100.00
9717;BME280;4897;43.570;27.832;2023-05-10T03:19:53;99652.25;;;6.56;100.00
9717;BME280;4897;43.570;27.832;2023-05-10T03:22:24;99653.38;;;6.38;100.00
9717;BME280;4897;43.570;27.832;2023-05-10T03:24:53;99615.47;;;6.06;100.00
9717;BME280;4897;43.570;27.832;2023-05-10T03:27:25;99658.50;;;6.41;100.00
9717;BME280;4897;43.570;27.832;2023-05-10T03:29:53;99642.56;;;6.41;100.00
9717;BME280;4897;43.570;27.832;2023-05-10T03:32:22;99657.03;;;6.65;100.00
9717;BME280;4897;43.570;27.832;2023-05-10T03:34:49;99647.59;;;6.45;100.00
9717;BME280;4897;43.570;27.832;2023-05-10T03:37:16;99602.00;;;6.09;100.00
9717;BME280;4897;43.570;27.832;2023-05-10T03:39:42;99657.03;;;6.65;100.00
9717;BME280;4897;43.570;27.832;2023-05-10T03:42:10;99655.78;;;6.71;100.00
9717;BME280;4897;43.570;27.832;2023-05-10T03:44:39;99656.53;;;6.73;100.00
9717;BME280;4897;43.570;27.832;2023-05-10T03:47:06;99659.84;;;6.62;100.00
9717;BME280;4897;43.570;27.832;2023-05-10T03:49:32;99659.97;;;6.61;100.00
9717;BME280;4897;43.570;27.832;2023-05-10T03:51:59;99667.44;;;6.68;100.00
9717;BME280;4897;43.570;27.832;2023-05-10T03:54:26;99660.06;;;6.73;100.00
9717;BME280;4897;43.570;27.832;2023-05-10T03:56:53;99665.00;;;6.79;100.00
9717;BME280;4897;43.570;27.832;2023-05-10T03:59:20;99656.16;;;6.79;100.00
9717;BME280;4897;43.570;27.832;2023-05-10T04:01:48;99641.63;;;6.56;100.00
9717;BME280;4897;43.570;27.832;2023-05-10T04:04:15;99577.66;;;6.31;100.00
9717;BME280;4897;43.570;27.832;2023-05-10T04:06:43;99590.13;;;6.44;100.00
9717;BME280;4897;43.570;27.832;2023-05-10T04:09:10;99626.81;;;6.80;100.00
9717;BME280;4897;43.570;27.832;2023-05-10T04:11:37;99656.47;;;7.02;100.00
9717;BME280;4897;43.570;27.832;2023-05-10T04:14:04;99657.13;;;6.92;100.00
9717;BME280;4897;43.570;27.832;2023-05-10T04:16:31;99672.88;;;6.81;100.00
9717;BME280;4897;43.570;27.832;2023-05-10T04:18:59;99660.25;;;6.98;100.00
9717;BME280;4897;43.570;27.832;2023-05-10T04:21:26;99625.69;;;6.98;100.00
9717;BME280;4897;43.570;27.832;2023-05-10T04:23:53;99659.28;;;7.28;100.00
9717;BME280;4897;43.570;27.832;2023-05-10T04:26:20;99636.00;;;7.31;100.00
9717;BME280;4897;43.570;27.832;2023-05-10T04:28:50;99652.72;;;7.60;100.00
9717;BME280;4897;43.570;27.832;2023-05-10T04:31:17;99639.19;;;7.77;100.00
9717;BME280;4897;43.570;27.832;2023-05-10T04:33:44;99661.19;;;7.93;100.00
9717;BME280;4897;43.570;27.832;2023-05-10T04:36:13;99659.75;;;8.14;100.00
9717;BME280;4897;43.570;27.832;2023-05-10T04:38:40;99666.00;;;8.27;100.00
9717;BME280;4897;43.570;27.832;2023-05-10T04:41:09;99662.19;;;8.44;100.00
9717;BME280;4897;43.570;27.832;2023-05-10T04:43:37;99633.69;;;8.19;100.00
9717;BME280;4897;43.570;27.832;2023-05-10T04:46:04;99616.13;;;8.29;100.00
9717;BME280;4897;43.570;27.832;2023-05-10T04:48:32;99638.31;;;8.42;100.00
9717;BME280;4897;43.570;27.832;2023-05-10T04:50:59;99660.09;;;8.61;100.00
9717;BME280;4897;43.570;27.832;2023-05-10T04:53:27;99632.97;;;8.30;100.00
9717;BME280;4897;43.570;27.832;2023-05-10T04:55:54;99660.84;;;8.63;100.00
9717;BME280;4897;43.570;27.832;2023-05-10T04:58:21;99634.94;;;8.53;100.00
9717;BME280;4897;43.570;27.832;2023-05-10T05:00:48;99583.25;;;8.16;100.00
9717;BME280;4897;43.570;27.832;2023-05-10T05:03:15;99633.84;;;8.30;100.00
9717;BME280;4897;43.570;27.832;2023-05-10T05:05:43;99659.75;;;8.14;100.00
9717;BME280;4897;43.570;27.832;2023-05-10T05:08:10;99660.47;;;8.03;100.00
9717;BME280;4897;43.570;27.832;2023-05-10T05:10:41;99661.66;;;8.12;100.00
9717;BME280;4897;43.570;27.832;2023-05-10T05:13:08;99671.47;;;8.12;100.00
9717;BME280;4897;43.570;27.832;2023-05-10T05:15:35;99648.28;;;8.26;100.00
9717;BME280;4897;43.570;27.832;2023-05-10T05:18:05;99640.66;;;8.34;100.00
9717;BME280;4897;43.570;27.832;2023-05-10T05:20:32;99662.44;;;8.78;100.00
9717;BME280;4897;43.570;27.832;2023-05-10T05:22:59;99653.47;;;9.05;100.00
9717;BME280;4897;43.570;27.832;2023-05-10T05:25:26;99654.69;;;9.37;100.00
9717;BME280;4897;43.570;27.832;2023-05-10T05:27:55;99648.66;;;9.58;100.00
9717;BME280;4897;43.570;27.832;2023-05-10T05:30:22;99649.56;;;9.94;100.00
9717;BME280;4897;43.570;27.832;2023-05-10T05:32:48;99643.72;;;10.12;100.00
9717;BME280;4897;43.570;27.832;2023-05-10T05:35:15;99632.69;;;10.17;100.00
9717;BME280;4897;43.570;27.832;2023-05-10T05:37:42;99644.84;;;10.56;100.00
9717;BME280;4897;43.570;27.832;2023-05-10T05:40:14;99609.41;;;11.09;100.00
9717;BME280;4897;43.570;27.832;2023-05-10T05:42:41;99622.59;;;12.29;100.00
9717;BME280;4897;43.570;27.832;2023-05-10T05:45:09;99632.41;;;13.22;100.00
9717;BME280;4897;43.570;27.832;2023-05-10T05:47:38;99609.88;;;13.73;100.00
9717;BME280;4897;43.570;27.832;2023-05-10T05:50:06;99616.06;;;14.32;100.00
9717;BME280;4897;43.570;27.832;2023-05-10T05:52:33;99613.19;;;14.53;100.00
9717;BME280;4897;43.570;27.832;2023-05-10T05:55:00;99613.63;;;14.58;100.00
9717;BME280;4897;43.570;27.832;2023-05-10T05:57:27;99595.78;;;14.09;100.00
9717;BME280;4897;43.570;27.832;2023-05-10T05:59:54;99609.81;;;13.34;100.00
9717;BME280;4897;43.570;27.832;2023-05-10T06:02:22;99628.38;;;13.17;100.00
9717;BME280;4897;43.570;27.832;2023-05-10T06:04:50;99604.56;;;13.03;100.00
9717;BME280;4897;43.570;27.832;2023-05-10T06:07:17;99629.66;;;13.52;100.00
9717;BME280;4897;43.570;27.832;2023-05-10T06:09:44;99621.25;;;15.08;100.00
9717;BME280;4897;43.570;27.832;2023-05-10T06:12:11;99598.94;;;15.26;100.00
9717;BME280;4897;43.570;27.832;2023-05-10T06:14:38;99609.66;;;15.08;100.00
9717;BME280;4897;43.570;27.832;2023-05-10T06:17:05;99626.97;;;14.96;100.00
9717;BME280;4897;43.570;27.832;2023-05-10T06:19:33;99618.00;;;15.42;100.00
9717;BME280;4897;43.570;27.832;2023-05-10T06:22:02;99616.13;;;15.25;100.00
9717;BME280;4897;43.570;27.832;2023-05-10T06:24:29;99538.59;;;14.91;100.00
9717;BME280;4897;43.570;27.832;2023-05-10T06:26:56;99604.88;;;15.29;100.00
9717;BME280;4897;43.570;27.832;2023-05-10T06:29:25;99595.81;;;15.30;100.00
9717;BME280;4897;43.570;27.832;2023-05-10T06:31:52;99607.69;;;15.37;100.00
9717;BME280;4897;43.570;27.832;2023-05-10T06:34:19;99608.88;;;15.79;100.00
9717;BME280;4897;43.570;27.832;2023-05-10T06:36:48;99627.00;;;15.87;100.00
9717;BME280;4897;43.570;27.832;2023-05-10T06:39:15;99561.84;;;15.91;100.00
9717;BME280;4897;43.570;27.832;2023-05-10T06:41:42;99594.09;;;16.01;100.00
9717;BME280;4897;43.570;27.832;2023-05-10T06:44:09;99628.56;;;16.07;100.00
9717;BME280;4897;43.570;27.832;2023-05-10T06:46:38;99624.31;;;15.87;100.00
9717;BME280;4897;43.570;27.832;2023-05-10T06:49:06;99608.81;;;15.89;100.00
9717;BME280;4897;43.570;27.832;2023-05-10T06:51:34;99556.50;;;15.99;100.00
9717;BME280;4897;43.570;27.832;2023-05-10T06:54:02;99608.22;;;16.30;100.00
9717;BME280;4897;43.570;27.832;2023-05-10T06:56:29;99611.91;;;16.29;100.00
9717;BME280;4897;43.570;27.832;2023-05-10T06:58:56;99615.94;;;16.60;100.00
9717;BME280;4897;43.570;27.832;2023-05-10T07:01:23;99601.44;;;16.87;100.00
9717;BME280;4897;43.570;27.832;2023-05-10T07:03:50;99598.78;;;16.95;100.00
9717;BME280;4897;43.570;27.832;2023-05-10T07:06:17;99613.50;;;17.01;100.00
9717;BME280;4897;43.570;27.832;2023-05-10T07:08:46;99617.31;;;17.16;96.89
9717;BME280;4897;43.570;27.832;2023-05-10T07:11:14;99613.66;;;16.99;100.00
9717;BME280;4897;43.570;27.832;2023-05-10T07:13:41;99635.31;;;16.82;100.00
9717;BME280;4897;43.570;27.832;2023-05-10T07:16:11;99619.91;;;16.56;100.00
9717;BME280;4897;43.570;27.832;2023-05-10T07:18:38;99540.13;;;16.36;100.00
9717;BME280;4897;43.570;27.832;2023-05-10T07:21:05;99625.53;;;16.63;100.00
9717;BME280;4897;43.570;27.832;2023-05-10T07:23:32;99626.53;;;16.44;100.00
9717;BME280;4897;43.570;27.832;2023-05-10T07:25:58;99617.22;;;16.56;100.00
9717;BME280;4897;43.570;27.832;2023-05-10T07:28:30;99613.38;;;16.41;100.00
9717;BME280;4897;43.570;27.832;2023-05-10T07:30:57;99613.84;;;16.54;100.00
9717;BME280;4897;43.570;27.832;2023-05-10T07:33:24;99627.94;;;16.66;100.00
9717;BME280;4897;43.570;27.832;2023-05-10T07:35:51;99625.19;;;16.58;100.00
9717;BME280;4897;43.570;27.832;2023-05-10T07:38:18;99619.25;;;16.80;97.35
9717;BME280;4897;43.570;27.832;2023-05-10T07:40:45;99601.91;;;16.83;96.26
9717;BME280;4897;43.570;27.832;2023-05-10T07:43:11;99604.44;;;16.84;97.52
9717;BME280;4897;43.570;27.832;2023-05-10T07:45:40;99617.59;;;17.80;91.76
9717;BME280;4897;43.570;27.832;2023-05-10T07:48:07;99618.63;;;19.48;70.83
9717;BME280;4897;43.570;27.832;2023-05-10T07:50:34;99616.56;;;21.02;57.70
9717;BME280;4897;43.570;27.832;2023-05-10T07:53:01;99604.50;;;23.32;49.40
9717;BME280;4897;43.570;27.832;2023-05-10T07:55:28;99592.84;;;23.51;45.02
9717;BME280;4897;43.570;27.832;2023-05-10T07:57:54;99603.63;;;24.07;44.11
9717;BME280;4897;43.570;27.832;2023-05-10T08:00:21;99590.19;;;24.12;43.55
9717;BME280;4897;43.570;27.832;2023-05-10T08:02:50;99615.16;;;24.76;41.78
9717;BME280;4897;43.570;27.832;2023-05-10T08:05:17;99560.22;;;25.74;39.89
9717;BME280;4897;43.570;27.832;2023-05-10T08:07:44;99614.50;;;24.87;40.68
9717;BME280;4897;43.570;27.832;2023-05-10T08:10:14;99612.59;;;25.07;40.94
9717;BME280;4897;43.570;27.832;2023-05-10T08:12:42;99607.88;;;25.66;39.25
9717;BME280;4897;43.570;27.832;2023-05-10T08:15:11;99569.19;;;25.30;38.64
9717;BME280;4897;43.570;27.832;2023-05-10T08:17:38;99601.94;;;25.82;38.37
9717;BME280;4897;43.570;27.832;2023-05-10T08:20:08;99620.09;;;24.39;40.07
9717;BME280;4897;43.570;27.832;2023-05-10T08:22:35;99516.06;;;23.61;40.84
9717;BME280;4897;43.570;27.832;2023-05-10T08:25:02;99611.28;;;21.74;45.64
9717;BME280;4897;43.570;27.832;2023-05-10T08:27:29;99631.13;;;20.19;50.56
9717;BME280;4897;43.570;27.832;2023-05-10T08:29:56;99631.03;;;19.81;52.61
9717;BME280;4897;43.570;27.832;2023-05-10T08:32:23;99612.16;;;20.41;51.00
9717;BME280;4897;43.570;27.832;2023-05-10T08:34:50;99635.75;;;20.41;51.11
9717;BME280;4897;43.570;27.832;2023-05-10T08:37:22;99607.50;;;20.87;50.92
9717;BME280;4897;43.570;27.832;2023-05-10T08:39:56;99622.13;;;21.67;49.32
9717;BME280;4897;43.570;27.832;2023-05-10T08:42:25;99614.84;;;23.43;45.87
9717;BME280;4897;43.570;27.832;2023-05-10T08:44:57;99597.94;;;26.23;40.04
9717;BME280;4897;43.570;27.832;2023-05-10T08:47:25;99613.81;;;25.30;39.72
9717;BME280;4897;43.570;27.832;2023-05-10T08:49:56;99621.22;;;23.50;42.96
9717;BME280;4897;43.570;27.832;2023-05-10T08:52:28;99608.53;;;22.03;43.99
9717;BME280;4897;43.570;27.832;2023-05-10T08:54:58;99578.16;;;22.63;43.11
9717;BME280;4897;43.570;27.832;2023-05-10T08:57:26;99592.41;;;24.82;37.87
9717;BME280;4897;43.570;27.832;2023-05-10T08:59:55;99586.53;;;27.31;35.94
9717;BME280;4897;43.570;27.832;2023-05-10T09:02:23;99587.69;;;28.96;33.15
9717;BME280;4897;43.570;27.832;2023-05-10T09:04:50;99610.28;;;26.76;34.63
9717;BME280;4897;43.570;27.832;2023-05-10T09:07:17;99614.25;;;24.62;37.86
9717;BME280;4897;43.570;27.832;2023-05-10T09:09:47;99625.03;;;23.00;40.02
9717;BME280;4897;43.570;27.832;2023-05-10T09:12:14;99629.13;;;21.91;41.89
9717;BME280;4897;43.570;27.832;2023-05-10T09:14:42;99603.53;;;21.12;44.38
9717;BME280;4897;43.570;27.832;2023-05-10T09:17:10;99610.97;;;21.18;44.37
9717;BME280;4897;43.570;27.832;2023-05-10T09:19:38;99599.28;;;22.18;42.06
9717;BME280;4897;43.570;27.832;2023-05-10T09:22:05;99594.94;;;24.96;37.44
9717;BME280;4897;43.570;27.832;2023-05-10T09:24:31;99579.56;;;26.30;34.52
9717;BME280;4897;43.570;27.832;2023-05-10T09:27:03;99595.94;;;27.96;32.39
9717;BME280;4897;43.570;27.832;2023-05-10T09:29:39;99588.84;;;28.36;32.13
9717;BME280;4897;43.570;27.832;2023-05-10T09:32:06;99575.16;;;25.84;34.37
9717;BME280;4897;43.570;27.832;2023-05-10T09:34:33;99614.78;;;24.12;37.45
9717;BME280;4897;43.570;27.832;2023-05-10T09:37:02;99590.28;;;24.71;37.66
9717;BME280;4897;43.570;27.832;2023-05-10T09:39:38;99590.19;;;26.51;34.47
9717;BME280;4897;43.570;27.832;2023-05-10T09:42:09;99596.72;;;28.03;32.88
9717;BME280;4897;43.570;27.832;2023-05-10T09:44:36;99605.53;;;28.82;31.47
9717;BME280;4897;43.570;27.832;2023-05-10T09:47:04;99617.38;;;26.14;34.51
9717;BME280;4897;43.570;27.832;2023-05-10T09:49:31;99608.78;;;23.82;39.02
9717;BME280;4897;43.570;27.832;2023-05-10T09:52:03;99571.56;;;22.57;41.39
9717;BME280;4897;43.570;27.832;2023-05-10T09:54:31;99612.16;;;23.97;38.12
9717;BME280;4897;43.570;27.832;2023-05-10T09:56:58;99593.69;;;26.27;35.57
9717;BME280;4897;43.570;27.832;2023-05-10T09:59:27;99588.91;;;28.18;33.36
9717;BME280;4897;43.570;27.832;2023-05-10T10:01:56;99589.13;;;29.10;32.32
9717;BME280;4897;43.570;27.832;2023-05-10T10:04:23;99573.81;;;29.49;31.98
9717;BME280;4897;43.570;27.832;2023-05-10T10:07:01;99573.91;;;29.77;31.28
9717;BME280;4897;43.570;27.832;2023-05-10T10:09:29;99568.88;;;30.14;31.23
9717;BME280;4897;43.570;27.832;2023-05-10T10:11:56;99563.31;;;29.35;31.93
9717;BME280;4897;43.570;27.832;2023-05-10T10:14:23;99521.91;;;27.83;33.42
9717;BME280;4897;43.570;27.832;2023-05-10T10:16:52;99587.44;;;28.86;32.50
9717;BME280;4897;43.570;27.832;2023-05-10T10:19:20;99592.34;;;29.65;31.34
9717;BME280;4897;43.570;27.832;2023-05-10T10:21:47;99597.16;;;29.00;31.83
9717;BME280;4897;43.570;27.832;2023-05-10T10:24:14;99576.84;;;27.28;33.15
9717;BME280;4897;43.570;27.832;2023-05-10T10:26:45;99598.72;;;28.85;31.52
9717;BME280;4897;43.570;27.832;2023-05-10T10:29:21;99600.25;;;29.04;31.24
9717;BME280;4897;43.570;27.832;2023-05-10T10:31:57;99600.56;;;26.98;33.26
9717;BME280;4897;43.570;27.832;2023-05-10T10:34:31;99596.13;;;27.83;33.34
9717;BME280;4897;43.570;27.832;2023-05-10T10:37:04;99538.03;;;25.24;34.69
9717;BME280;4897;43.570;27.832;2023-05-10T10:39:31;99511.47;;;23.27;37.13
9717;BME280;4897;43.570;27.832;2023-05-10T10:42:02;99598.78;;;22.99;38.99
9717;BME280;4897;43.570;27.832;2023-05-10T10:44:38;99608.88;;;22.14;39.56
9717;BME280;4897;43.570;27.832;2023-05-10T10:47:21;99590.09;;;21.84;40.33
9717;BME280;4897;43.570;27.832;2023-05-10T10:50:06;99590.41;;;23.63;38.36
9717;BME280;4897;43.570;27.832;2023-05-10T10:52:35;99595.56;;;23.92;37.74
9717;BME280;4897;43.570;27.832;2023-05-10T10:55:04;99581.56;;;22.92;38.72
9717;BME280;4897;43.570;27.832;2023-05-10T10:57:33;99608.53;;;22.60;39.42
9717;BME280;4897;43.570;27.832;2023-05-10T11:00:24;99577.13;;;22.21;39.36
9717;BME280;4897;43.570;27.832;2023-05-10T11:02:56;99542.94;;;21.98;39.84
9717;BME280;4897;43.570;27.832;2023-05-10T11:05:44;99593.22;;;22.38;40.91
9717;BME280;4897;43.570;27.832;2023-05-10T11:08:17;99592.16;;;22.17;39.26
9717;BME280;4897;43.570;27.832;2023-05-10T11:10:52;99597.44;;;21.69;40.14
9717;BME280;4897;43.570;27.832;2023-05-10T11:13:27;99594.00;;;20.79;41.59
9717;BME280;4897;43.570;27.832;2023-05-10T11:15:56;99604.56;;;20.74;42.65
9717;BME280;4897;43.570;27.832;2023-05-10T11:18:28;99590.31;;;20.35;42.95
9717;BME280;4897;43.570;27.832;2023-05-10T11:20:57;99570.88;;;19.92;44.15
9717;BME280;4897;43.570;27.832;2023-05-10T11:23:30;99584.84;;;20.57;43.54
9717;BME280;4897;43.570;27.832;2023-05-10T11:25:58;99548.66;;;20.20;43.29
9717;BME280;4897;43.570;27.832;2023-05-10T11:28:27;99597.38;;;20.44;44.56
9717;BME280;4897;43.570;27.832;2023-05-10T11:30:54;99597.56;;;20.12;44.82
9717;BME280;4897;43.570;27.832;2023-05-10T11:33:26;99601.59;;;21.50;42.78
9717;BME280;4897;43.570;27.832;2023-05-10T11:35:53;99586.25;;;24.40;38.98
9717;BME280;4897;43.570;27.832;2023-05-10T11:38:20;99591.94;;;23.38;43.16
9717;BME280;4897;43.570;27.832;2023-05-10T11:40:51;99572.44;;;22.15;46.43
9717;BME280;4897;43.570;27.832;2023-05-10T11:43:18;99573.81;;;21.55;49.70
9717;BME280;4897;43.570;27.832;2023-05-10T11:45:48;99547.84;;;21.88;45.81
9717;BME280;4897;43.570;27.832;2023-05-10T11:48:15;99550.06;;;19.62;52.87
9717;BME280;4897;43.570;27.832;2023-05-10T11:50:49;99374.13;;;17.48;61.79
9717;BME280;4897;43.570;27.832;2023-05-10T11:53:16;99588.47;;;18.48;58.80
9717;BME280;4897;43.570;27.832;2023-05-10T11:55:43;99598.41;;;18.96;53.15
9717;BME280;4897;43.570;27.832;2023-05-10T11:58:10;99591.16;;;21.24;47.34
9717;BME280;4897;43.570;27.832;2023-05-10T12:00:37;99585.63;;;22.75;45.85
9717;BME280;4897;43.570;27.832;2023-05-10T12:03:04;99558.72;;;24.68;44.45
9717;BME280;4897;43.570;27.832;2023-05-10T12:05:32;99557.25;;;25.75;41.27
9717;BME280;4897;43.570;27.832;2023-05-10T12:08:14;99558.72;;;25.01;41.01
9717;BME280;4897;43.570;27.832;2023-05-10T12:10:43;99517.69;;;24.68;41.36
9717;BME280;4897;43.570;27.832;2023-05-10T12:13:11;99563.97;;;24.43;42.28
9717;BME280;4897;43.570;27.832;2023-05-10T12:15:41;99560.06;;;23.45;44.13
9717;BME280;4897;43.570;27.832;2023-05-10T12:18:09;99574.19;;;21.22;49.01
9717;BME280;4897;43.570;27.832;2023-05-10T12:20:37;99576.88;;;20.56;53.07
9717;BME280;4897;43.570;27.832;2023-05-10T12:23:12;99565.38;;;19.47;59.43
9717;BME280;4897;43.570;27.832;2023-05-10T12:25:39;99586.41;;;19.45;61.66
9717;BME280;4897;43.570;27.832;2023-05-10T12:28:07;99561.63;;;19.56;60.48
9717;BME280;4897;43.570;27.832;2023-05-10T12:30:36;99538.69;;;19.20;59.62
9717;BME280;4897;43.570;27.832;2023-05-10T12:33:07;99576.44;;;19.30;62.12
9717;BME280;4897;43.570;27.832;2023-05-10T12:35:44;99572.66;;;19.85;62.46
9717;BME280;4897;43.570;27.832;2023-05-10T12:38:31;99564.22;;;21.00;57.55
9717;BME280;4897;43.570;27.832;2023-05-10T12:40:59;99558.66;;;20.19;57.27
9717;BME280;4897;43.570;27.832;2023-05-10T12:43:27;99556.66;;;19.90;55.61
9717;BME280;4897;43.570;27.832;2023-05-10T12:45:54;99561.91;;;20.60;53.81
9717;BME280;4897;43.570;27.832;2023-05-10T12:48:21;99548.19;;;22.90;46.13
9717;BME280;4897;43.570;27.832;2023-05-10T12:50:48;99546.59;;;23.97;43.15
9717;BME280;4897;43.570;27.832;2023-05-10T12:53:16;99556.56;;;23.64;44.34
9717;BME280;4897;43.570;27.832;2023-05-10T12:55:44;99539.94;;;25.81;41.15
9717;BME280;4897;43.570;27.832;2023-05-10T12:58:14;99536.88;;;26.65;38.75
9717;BME280;4897;43.570;27.832;2023-05-10T13:00:41;99533.38;;;25.31;39.98
9717;BME280;4897;43.570;27.832;2023-05-10T13:03:09;99401.31;;;23.41;40.90
9717;BME280;4897;43.570;27.832;2023-05-10T13:05:36;99486.56;;;22.68;43.09
9717;BME280;4897;43.570;27.832;2023-05-10T13:08:05;99486.22;;;22.84;43.99
9717;BME280;4897;43.570;27.832;2023-05-10T13:10:32;99350.00;;;22.29;43.99
9717;BME280;4897;43.570;27.832;2023-05-10T13:13:02;99541.84;;;25.23;41.89
9717;BME280;4897;43.570;27.832;2023-05-10T13:15:31;99373.06;;;24.98;39.24
9717;BME280;4897;43.570;27.832;2023-05-10T13:17:58;99534.34;;;26.39;39.12
9717;BME280;4897;43.570;27.832;2023-05-10T13:20:25;99447.66;;;26.38;38.14
9717;BME280;4897;43.570;27.832;2023-05-10T13:22:53;99550.13;;;27.17;37.45